sensor_id;sensor_type;location;lat;lon;timestamp;pressure;altitude;pressure_sealevel;temperature;humidity
40998;BME280;26740;45.944;12.480;2023-11-19T00:00:42;101852.63;;;2.19;100.00
40998;BME280;26740;45.944;12.480;2023-11-19T00:03:08;101849.00;;;2.19;100.00
40998;BME280;26740;45.944;12.480;2023-11-19T00:05:33;101848.84;;;2.20;100.00
40998;BME280;26740;45.944;12.480;2023-11-19T00:07:59;101845.59;;;2.33;100.00
40998;BME280;26740;45.944;12.480;2023-11-19T00:10:24;101845.03;;;2.38;100.00
40998;BME280;26740;45.944;12.480;2023-11-19T00:12:50;101847.44;;;2.41;100.00
40998;BME280;26740;45.944;12.480;2023-11-19T00:15:16;101826.53;;;2.40;100.00
40998;BME280;26740;45.944;12.480;2023-11-19T00:17:47;101835.31;;;2.27;100.00
40998;BME280;26740;45.944;12.480;2023-11-19T00:20:18;101830.31;;;2.31;100.00
40998;BME280;26740;45.944;12.480;2023-11-19T00:22:44;101830.31;;;2.31;100.00
40998;BME280;26740;45.944;12.480;2023-11-19T00:25:11;101833.75;;;2.33;100.00
40998;BME280;26740;45.944;12.480;2023-11-19T00:27:37;101835.31;;;2.19;100.00
40998;BME280;26740;45.944;12.480;2023-11-19T00:30:06;101843.03;;;2.07;100.00
40998;BME280;26740;45.944;12.480;2023-11-19T00:32:33;101837.56;;;1.99;100.00
40998;BME280;26740;45.944;12.480;2023-11-19T00:34:59;101845.09;;;1.97;100.00
40998;BME280;26740;45.944;12.480;2023-11-19T00:37:25;101836.53;;;2.00;100.00
40998;BME280;26740;45.944;12.480;2023-11-19T00:39:50;101831.72;;;1.94;100.00
40998;BME280;26740;45.944;12.480;2023-11-19T00:42:17;101827.81;;;1.96;100.00
40998;BME280;26740;45.944;12.480;2023-11-19T00:44:43;101826.09;;;1.95;100.00
40998;BME280;26740;45.944;12.480;2023-11-19T00:47:08;101817.69;;;1.88;100.00
40998;BME280;26740;45.944;12.480;2023-11-19T00:49:34;101830.72;;;1.95;100.00
40998;BME280;26740;45.944;12.480;2023-11-19T00:52:00;101831.38;;;1.88;100.00
40998;BME280;26740;45.944;12.480;2023-11-19T00:54:25;101830.53;;;1.80;100.00
40998;BME280;26740;45.944;12.480;2023-11-19T00:56:55;101829.69;;;1.79;100.00
40998;BME280;26740;45.944;12.480;2023-11-19T00:59:20;101831.22;;;1.82;100.00
40998;BME280;26740;45.944;12.480;2023-11-19T01:01:46;101814.97;;;1.72;100.00
40998;BME280;26740;45.944;12.480;2023-11-19T01:04:16;101813.41;;;1.78;100.00
40998;BME280;26740;45.944;12.480;2023-11-19T01:06:42;101806.06;;;1.70;100.00
40998;BME280;26740;45.944;12.480;2023-11-19T01:09:08;101813.41;;;1.78;100.00
40998;BME280;26740;45.944;12.480;2023-11-19T01:11:34;101797.50;;;1.73;100.00
40998;BME280;26740;45.944;12.480;2023-11-19T01:14:00;101793.72;;;1.66;100.00
40998;BME280;26740;45.944;12.480;2023-11-19T01:16:26;101807.59;;;1.73;100.00
40998;BME280;26740;45.944;12.480;2023-11-19T01:18:52;101812.22;;;1.80;100.00
40998;BME280;26740;45.944;12.480;2023-11-19T01:21:18;101807.25;;;1.84;100.00
40998;BME280;26740;45.944;12.480;2023-11-19T01:23:44;101806.75;;;1.80;100.00
40998;BME280;26740;45.944;12.480;2023-11-19T01:26:11;101811.88;;;1.75;100.00
40998;BME280;26740;45.944;12.480;2023-11-19T01:28:38;101789.47;;;1.72;100.00
40998;BME280;26740;45.944;12.480;2023-11-19T01:31:12;101778.00;;;1.68;100.00
40998;BME280;26740;45.944;12.480;2023-11-19T01:33:40;101776.13;;;1.77;100.00
40998;BME280;26740;45.944;12.480;2023-11-19T01:36:07;101765.81;;;1.87;100.00
40998;BME280;26740;45.944;12.480;2023-11-19T01:38:34;101756.75;;;1.86;100.00
40998;BME280;26740;45.944;12.480;2023-11-19T01:40:59;101760.53;;;1.85;100.00
40998;BME280;26740;45.944;12.480;2023-11-19T01:43:39;101762.09;;;1.72;100.00
40998;BME280;26740;45.944;12.480;2023-11-19T01:46:08;101772.38;;;1.69;100.00
40998;BME280;26740;45.944;12.480;2023-11-19T01:48:42;101767.06;;;1.68;100.00
40998;BME280;26740;45.944;12.480;2023-11-19T01:51:09;101762.09;;;1.63;100.00
40998;BME280;26740;45.944;12.480;2023-11-19T01:53:36;101757.47;;;1.56;100.00
40998;BME280;26740;45.944;12.480;2023-11-19T01:56:04;101757.81;;;1.52;100.00
40998;BME280;26740;45.944;12.480;2023-11-19T01:58:36;101746.84;;;1.52;100.00
40998;BME280;26740;45.944;12.480;2023-11-19T02:01:01;101749.75;;;1.51;100.00
40998;BME280;26740;45.944;12.480;2023-11-19T02:03:31;101750.09;;;1.56;100.00
40998;BME280;26740;45.944;12.480;2023-11-19T02:05:59;101747.53;;;1.63;100.00
40998;BME280;26740;45.944;12.480;2023-11-19T02:08:24;101738.63;;;1.69;100.00
40998;BME280;26740;45.944;12.480;2023-11-19T02:10:51;101735.38;;;1.74;100.00
40998;BME280;26740;45.944;12.480;2023-11-19T02:13:20;101740.03;;;1.73;100.00
40998;BME280;26740;45.944;12.480;2023-11-19T02:15:46;101738.13;;;1.82;100.00
40998;BME280;26740;45.944;12.480;2023-11-19T02:18:23;101730.06;;;1.88;100.00
40998;BME280;26740;45.944;12.480;2023-11-19T02:20:50;101718.25;;;1.88;100.00
40998;BME280;26740;45.944;12.480;2023-11-19T02:23:16;101705.41;;;1.88;100.00
40998;BME280;26740;45.944;12.480;2023-11-19T02:25:47;101692.38;;;1.90;100.00
40998;BME280;26740;45.944;12.480;2023-11-19T02:28:18;101692.72;;;1.96;100.00
40998;BME280;26740;45.944;12.480;2023-11-19T02:30:44;101688.94;;;2.05;100.00
40998;BME280;26740;45.944;12.480;2023-11-19T02:33:09;101687.53;;;2.17;100.00
40998;BME280;26740;45.944;12.480;2023-11-19T02:35:35;101696.03;;;2.39;100.00
40998;BME280;26740;45.944;12.480;2023-11-19T02:38:01;101696.78;;;2.56;100.00
40998;BME280;26740;45.944;12.480;2023-11-19T02:40:26;101696.59;;;2.57;100.00
40998;BME280;26740;45.944;12.480;2023-11-19T02:42:53;101698.31;;;2.67;100.00
40998;BME280;26740;45.944;12.480;2023-11-19T02:45:21;101715.03;;;2.72;100.00
40998;BME280;26740;45.944;12.480;2023-11-19T02:47:47;101712.50;;;2.70;100.00
40998;BME280;26740;45.944;12.480;2023-11-19T02:50:13;101704.56;;;2.75;100.00
40998;BME280;26740;45.944;12.480;2023-11-19T02:52:42;101693.66;;;2.67;100.00
40998;BME280;26740;45.944;12.480;2023-11-19T02:55:08;101684.78;;;2.57;100.00
40998;BME280;26740;45.944;12.480;2023-11-19T02:57:40;101690.28;;;2.57;100.00
40998;BME280;26740;45.944;12.480;2023-11-19T03:02:43;101679.81;;;2.60;100.00
40998;BME280;26740;45.944;12.480;2023-11-19T03:05:13;101667.38;;;2.41;100.00
40998;BME280;26740;45.944;12.480;2023-11-19T03:07:43;101669.47;;;2.39;100.00
40998;BME280;26740;45.944;12.480;2023-11-19T03:10:12;101668.78;;;2.37;100.00
40998;BME280;26740;45.944;12.480;2023-11-19T03:12:44;101662.06;;;2.40;100.00
40998;BME280;26740;45.944;12.480;2023-11-19T03:15:11;101653.69;;;2.41;100.00
40998;BME280;26740;45.944;12.480;2023-11-19T03:17:40;101641.88;;;2.41;100.00
40998;BME280;26740;45.944;12.480;2023-11-19T03:20:07;101649.31;;;2.55;100.00
40998;BME280;26740;45.944;12.480;2023-11-19T03:22:36;101663.03;;;2.55;100.00
40998;BME280;26740;45.944;12.480;2023-11-19T03:25:02;101661.28;;;2.62;100.00
40998;BME280;26740;45.944;12.480;2023-11-19T03:27:27;101674.47;;;2.67;100.00
40998;BME280;26740;45.944;12.480;2023-11-19T03:29:53;101681.09;;;2.73;100.00
40998;BME280;26740;45.944;12.480;2023-11-19T03:32:18;101670.19;;;2.64;100.00
40998;BME280;26740;45.944;12.480;2023-11-19T03:34:45;101661.47;;;2.61;100.00
40998;BME280;26740;45.944;12.480;2023-11-19T03:37:10;101654.09;;;2.61;100.00
40998;BME280;26740;45.944;12.480;2023-11-19T03:39:37;101655.88;;;2.54;100.00
40998;BME280;26740;45.944;12.480;2023-11-19T03:42:02;101644.03;;;2.54;100.00
40998;BME280;26740;45.944;12.480;2023-11-19T03:44:28;101641.41;;;2.60;100.00
40998;BME280;26740;45.944;12.480;2023-11-19T03:46:54;101643.22;;;2.45;100.00
40998;BME280;26740;45.944;12.480;2023-11-19T03:49:19;101630.56;;;2.44;100.00
40998;BME280;26740;45.944;12.480;2023-11-19T03:51:45;101628.31;;;2.47;100.00
40998;BME280;26740;45.944;12.480;2023-11-19T03:54:10;101622.03;;;2.39;100.00
40998;BME280;26740;45.944;12.480;2023-11-19T03:56:36;101615.56;;;2.23;100.00
40998;BME280;26740;45.944;12.480;2023-11-19T03:59:02;101606.38;;;2.16;100.00
40998;BME280;26740;45.944;12.480;2023-11-19T04:01:28;101622.81;;;2.16;100.00
40998;BME280;26740;45.944;12.480;2023-11-19T04:03:54;101639.59;;;2.13;100.00
40998;BME280;26740;45.944;12.480;2023-11-19T04:06:21;101632.19;;;2.22;100.00
40998;BME280;26740;45.944;12.480;2023-11-19T04:08:46;101635.66;;;2.16;100.00
40998;BME280;26740;45.944;12.480;2023-11-19T04:11:12;101642.63;;;2.26;100.00
40998;BME280;26740;45.944;12.480;2023-11-19T04:13:37;101642.47;;;2.28;100.00
40998;BME280;26740;45.944;12.480;2023-11-19T04:16:03;101645.03;;;2.21;100.00
40998;BME280;26740;45.944;12.480;2023-11-19T04:18:29;101628.63;;;2.13;100.00
40998;BME280;26740;45.944;12.480;2023-11-19T04:20:55;101624.41;;;2.02;100.00
40998;BME280;26740;45.944;12.480;2023-11-19T04:23:21;101624.72;;;2.07;100.00
40998;BME280;26740;45.944;12.480;2023-11-19T04:25:46;101635.34;;;2.11;100.00
40998;BME280;26740;45.944;12.480;2023-11-19T04:28:12;101634.16;;;2.05;100.00
40998;BME280;26740;45.944;12.480;2023-11-19T04:30:37;101624.56;;;2.01;100.00
40998;BME280;26740;45.944;12.480;2023-11-19T04:33:03;101625.94;;;2.05;100.00
40998;BME280;26740;45.944;12.480;2023-11-19T04:35:28;101613.13;;;1.97;100.00
40998;BME280;26740;45.944;12.480;2023-11-19T04:37:54;101617.06;;;1.95;100.00
40998;BME280;26740;45.944;12.480;2023-11-19T04:40:23;101601.16;;;1.90;100.00
40998;BME280;26740;45.944;12.480;2023-11-19T04:42:48;101608.69;;;1.96;100.00
40998;BME280;26740;45.944;12.480;2023-11-19T04:45:14;101613.16;;;1.89;100.00
40998;BME280;26740;45.944;12.480;2023-11-19T04:47:42;101611.44;;;1.88;100.00
40998;BME280;26740;45.944;12.480;2023-11-19T04:50:07;101603.41;;;1.78;100.00
40998;BME280;26740;45.944;12.480;2023-11-19T04:52:38;101605.88;;;1.65;100.00
40998;BME280;26740;45.944;12.480;2023-11-19T04:55:10;101616.16;;;1.63;100.00
40998;BME280;26740;45.944;12.480;2023-11-19T04:57:37;101615.81;;;1.58;100.00
40998;BME280;26740;45.944;12.480;2023-11-19T05:00:04;101622.47;;;1.55;100.00
40998;BME280;26740;45.944;12.480;2023-11-19T05:02:30;101625.06;;;1.48;100.00
40998;BME280;26740;45.944;12.480;2023-11-19T05:04:56;101622.84;;;1.52;100.00
40998;BME280;26740;45.944;12.480;2023-11-19T05:07:21;101607.09;;;1.46;100.00
40998;BME280;26740;45.944;12.480;2023-11-19T05:09:47;101611.19;;;1.50;100.00
40998;BME280;26740;45.944;12.480;2023-11-19T05:12:12;101611.56;;;1.47;100.00
40998;BME280;26740;45.944;12.480;2023-11-19T05:14:38;101616.88;;;1.48;100.00
40998;BME280;26740;45.944;12.480;2023-11-19T05:17:04;101604.19;;;1.56;100.00
40998;BME280;26740;45.944;12.480;2023-11-19T05:19:29;101602.13;;;1.58;100.00
40998;BME280;26740;45.944;12.480;2023-11-19T05:21:55;101595.09;;;1.63;100.00
40998;BME280;26740;45.944;12.480;2023-11-19T05:24:20;101587.91;;;1.62;100.00
40998;BME280;26740;45.944;12.480;2023-11-19T05:26:46;101601.41;;;1.64;100.00
40998;BME280;26740;45.944;12.480;2023-11-19T05:29:12;101605.88;;;1.65;100.00
40998;BME280;26740;45.944;12.480;2023-11-19T05:31:38;101615.13;;;1.56;100.00
40998;BME280;26740;45.944;12.480;2023-11-19T05:34:03;101614.25;;;1.55;100.00
40998;BME280;26740;45.944;12.480;2023-11-19T05:36:29;101607.06;;;1.62;100.00
40998;BME280;26740;45.944;12.480;2023-11-19T05:38:55;101597.66;;;1.57;100.00
40998;BME280;26740;45.944;12.480;2023-11-19T05:41:20;101591.69;;;1.61;100.00
40998;BME280;26740;45.944;12.480;2023-11-19T05:43:46;101582.28;;;1.56;100.00
40998;BME280;26740;45.944;12.480;2023-11-19T05:46:12;101580.06;;;1.51;100.00
40998;BME280;26740;45.944;12.480;2023-11-19T05:48:38;101577.84;;;1.46;100.00
40998;BME280;26740;45.944;12.480;2023-11-19T05:51:04;101573.25;;;1.39;100.00
40998;BME280;26740;45.944;12.480;2023-11-19T05:53:31;101569.16;;;1.26;100.00
40998;BME280;26740;45.944;12.480;2023-11-19T05:55:57;101566.59;;;1.33;100.00
40998;BME280;26740;45.944;12.480;2023-11-19T05:58:26;101566.44;;;1.26;100.00
40998;BME280;26740;45.944;12.480;2023-11-19T06:00:57;101563.03;;;1.32;100.00
40998;BME280;26740;45.944;12.480;2023-11-19T06:03:23;101568.00;;;1.29;100.00
40998;BME280;26740;45.944;12.480;2023-11-19T06:05:49;101563.69;;;1.26;100.00
40998;BME280;26740;45.944;12.480;2023-11-19T06:08:15;101574.97;;;1.23;100.00
40998;BME280;26740;45.944;12.480;2023-11-19T06:10:42;101560.47;;;1.23;100.00
40998;BME280;26740;45.944;12.480;2023-11-19T06:13:08;101568.16;;;1.27;100.00
40998;BME280;26740;45.944;12.480;2023-11-19T06:15:36;101547.47;;;1.25;100.00
40998;BME280;26740;45.944;12.480;2023-11-19T06:18:02;101563.88;;;1.25;100.00
40998;BME280;26740;45.944;12.480;2023-11-19T06:20:32;101578.22;;;1.27;100.00
40998;BME280;26740;45.944;12.480;2023-11-19T06:22:59;101573.63;;;1.19;100.00
40998;BME280;26740;45.944;12.480;2023-11-19T06:25:24;101582.84;;;1.18;100.00
40998;BME280;26740;45.944;12.480;2023-11-19T06:27:50;101584.75;;;1.18;100.00
40998;BME280;26740;45.944;12.480;2023-11-19T06:30:16;101582.34;;;1.14;100.00
40998;BME280;26740;45.944;12.480;2023-11-19T06:32:42;101590.38;;;1.24;100.00
40998;BME280;26740;45.944;12.480;2023-11-19T06:35:08;101585.06;;;1.31;100.00
40998;BME280;26740;45.944;12.480;2023-11-19T06:37:35;101581.97;;;1.34;100.00
40998;BME280;26740;45.944;12.480;2023-11-19T06:40:00;101579.16;;;1.67;100.00
40998;BME280;26740;45.944;12.480;2023-11-19T06:42:26;101571.63;;;1.69;100.00
40998;BME280;26740;45.944;12.480;2023-11-19T06:44:51;101597.25;;;1.84;100.00
40998;BME280;26740;45.944;12.480;2023-11-19T06:47:17;101601.97;;;2.07;100.00
40998;BME280;26740;45.944;12.480;2023-11-19T06:49:46;101594.09;;;2.67;100.00
40998;BME280;26740;45.944;12.480;2023-11-19T06:52:12;101594.97;;;3.05;100.00
40998;BME280;26740;45.944;12.480;2023-11-19T06:54:40;101587.59;;;3.44;100.00
40998;BME280;26740;45.944;12.480;2023-11-19T06:57:06;101587.47;;;4.26;100.00
40998;BME280;26740;45.944;12.480;2023-11-19T06:59:31;101584.59;;;5.14;100.00
40998;BME280;26740;45.944;12.480;2023-11-19T07:01:57;101588.34;;;5.63;100.00
40998;BME280;26740;45.944;12.480;2023-11-19T07:04:22;101579.59;;;6.22;100.00
40998;BME280;26740;45.944;12.480;2023-11-19T07:06:48;101592.03;;;6.53;100.00
40998;BME280;26740;45.944;12.480;2023-11-19T07:09:14;101591.69;;;7.16;100.00
40998;BME280;26740;45.944;12.480;2023-11-19T07:11:40;101603.28;;;8.05;100.00
40998;BME280;26740;45.944;12.480;2023-11-19T07:14:07;101599.53;;;8.38;100.00
40998;BME280;26740;45.944;12.480;2023-11-19T07:16:34;101612.03;;;8.99;100.00
40998;BME280;26740;45.944;12.480;2023-11-19T07:19:00;101610.25;;;10.24;100.00
40998;BME280;26740;45.944;12.480;2023-11-19T07:21:26;101604.69;;;10.24;100.00
40998;BME280;26740;45.944;12.480;2023-11-19T07:23:54;101600.63;;;10.08;100.00
40998;BME280;26740;45.944;12.480;2023-11-19T07:26:20;101606.88;;;11.55;100.00
40998;BME280;26740;45.944;12.480;2023-11-19T07:28:45;101612.66;;;12.36;100.00
40998;BME280;26740;45.944;12.480;2023-11-19T07:31:11;101615.41;;;13.05;100.00
40998;BME280;26740;45.944;12.480;2023-11-19T07:33:39;101633.19;;;13.16;100.00
40998;BME280;26740;45.944;12.480;2023-11-19T07:36:05;101617.72;;;13.54;100.00
40998;BME280;26740;45.944;12.480;2023-11-19T07:38:31;101618.50;;;14.06;94.43
40998;BME280;26740;45.944;12.480;2023-11-19T07:40:56;101617.38;;;14.68;84.41
40998;BME280;26740;45.944;12.480;2023-11-19T07:43:22;101627.13;;;14.87;83.41
40998;BME280;26740;45.944;12.480;2023-11-19T07:45:47;101630.72;;;14.83;77.82
40998;BME280;26740;45.944;12.480;2023-11-19T07:48:13;101621.31;;;14.94;74.69
40998;BME280;26740;45.944;12.480;2023-11-19T07:50:39;101616.13;;;15.35;67.83
40998;BME280;26740;45.944;12.480;2023-11-19T07:53:07;101615.84;;;16.01;60.30
40998;BME280;26740;45.944;12.480;2023-11-19T07:55:34;101627.56;;;16.46;57.18
40998;BME280;26740;45.944;12.480;2023-11-19T07:58:00;101644.50;;;16.72;57.89
40998;BME280;26740;45.944;12.480;2023-11-19T08:00:26;101664.84;;;17.10;54.55
40998;BME280;26740;45.944;12.480;2023-11-19T08:02:52;101668.56;;;17.41;55.42
40998;BME280;26740;45.944;12.480;2023-11-19T08:05:17;101665.19;;;17.75;55.58
40998;BME280;26740;45.944;12.480;2023-11-19T08:07:43;101654.25;;;18.09;50.38
40998;BME280;26740;45.944;12.480;2023-11-19T08:10:08;101657.63;;;17.50;47.77
40998;BME280;26740;45.944;12.480;2023-11-19T08:12:37;101651.69;;;17.36;47.48
40998;BME280;26740;45.944;12.480;2023-11-19T08:15:03;101655.31;;;17.16;49.17
40998;BME280;26740;45.944;12.480;2023-11-19T08:17:30;101650.81;;;17.10;47.05
40998;BME280;26740;45.944;12.480;2023-11-19T08:19:55;101643.78;;;17.02;51.29
40998;BME280;26740;45.944;12.480;2023-11-19T08:22:21;101640.41;;;15.57;53.38
40998;BME280;26740;45.944;12.480;2023-11-19T08:24:48;101626.31;;;15.79;51.23
40998;BME280;26740;45.944;12.480;2023-11-19T08:27:13;101628.69;;;17.70;47.71
40998;BME280;26740;45.944;12.480;2023-11-19T08:29:39;101637.81;;;19.57;44.78
40998;BME280;26740;45.944;12.480;2023-11-19T08:32:06;101627.53;;;19.77;41.82
40998;BME280;26740;45.944;12.480;2023-11-19T08:34:32;101633.78;;;18.84;44.54
40998;BME280;26740;45.944;12.480;2023-11-19T08:36:58;101627.34;;;18.68;43.56
40998;BME280;26740;45.944;12.480;2023-11-19T08:39:24;101627.00;;;18.80;45.36
40998;BME280;26740;45.944;12.480;2023-11-19T08:41:49;101637.50;;;18.59;44.90
40998;BME280;26740;45.944;12.480;2023-11-19T08:44:16;101646.59;;;18.41;47.18
40998;BME280;26740;45.944;12.480;2023-11-19T08:46:48;101633.47;;;17.28;45.40
40998;BME280;26740;45.944;12.480;2023-11-19T08:49:14;101637.78;;;16.20;51.31
40998;BME280;26740;45.944;12.480;2023-11-19T08:51:40;101634.16;;;15.17;51.79
40998;BME280;26740;45.944;12.480;2023-11-19T08:54:06;101631.66;;;14.27;53.97
40998;BME280;26740;45.944;12.480;2023-11-19T08:56:32;101633.28;;;14.23;59.53
40998;BME280;26740;45.944;12.480;2023-11-19T08:59:00;101630.72;;;13.99;59.65
40998;BME280;26740;45.944;12.480;2023-11-19T09:01:25;101620.22;;;13.73;64.25
40998;BME280;26740;45.944;12.480;2023-11-19T09:03:51;101626.16;;;13.59;74.01
40998;BME280;26740;45.944;12.480;2023-11-19T09:06:17;101624.75;;;13.28;71.33
40998;BME280;26740;45.944;12.480;2023-11-19T09:08:43;101625.63;;;13.00;73.58
40998;BME280;26740;45.944;12.480;2023-11-19T09:11:09;101627.16;;;12.90;74.48
40998;BME280;26740;45.944;12.480;2023-11-19T09:13:35;101631.34;;;12.64;100.00
40998;BME280;26740;45.944;12.480;2023-11-19T09:16:01;101640.56;;;12.65;100.00
40998;BME280;26740;45.944;12.480;2023-11-19T09:18:30;101643.63;;;12.92;100.00
40998;BME280;26740;45.944;12.480;2023-11-19T09:20:55;101640.16;;;13.02;100.00
40998;BME280;26740;45.944;12.480;2023-11-19T09:23:21;101642.56;;;13.27;90.70
40998;BME280;26740;45.944;12.480;2023-11-19T09:25:47;101626.66;;;13.39;78.15
40998;BME280;26740;45.944;12.480;2023-11-19T09:28:12;101619.91;;;13.52;76.41
40998;BME280;26740;45.944;12.480;2023-11-19T09:30:39;101616.00;;;13.87;74.62
40998;BME280;26740;45.944;12.480;2023-11-19T09:33:05;101616.00;;;14.48;69.28
40998;BME280;26740;45.944;12.480;2023-11-19T09:35:31;101623.00;;;14.07;70.08
40998;BME280;26740;45.944;12.480;2023-11-19T09:37:56;101620.97;;;14.24;71.81
40998;BME280;26740;45.944;12.480;2023-11-19T09:40:22;101624.97;;;13.89;74.14
40998;BME280;26740;45.944;12.480;2023-11-19T09:42:48;101627.50;;;14.30;75.24
40998;BME280;26740;45.944;12.480;2023-11-19T09:45:15;101618.00;;;14.09;67.71
40998;BME280;26740;45.944;12.480;2023-11-19T09:47:43;101623.50;;;14.26;64.57
40998;BME280;26740;45.944;12.480;2023-11-19T09:50:16;101623.19;;;14.22;65.96
40998;BME280;26740;45.944;12.480;2023-11-19T09:52:42;101616.75;;;14.21;84.65
40998;BME280;26740;45.944;12.480;2023-11-19T09:55:08;101613.19;;;14.65;69.40
40998;BME280;26740;45.944;12.480;2023-11-19T09:57:34;101606.44;;;15.15;65.53
40998;BME280;26740;45.944;12.480;2023-11-19T10:00:03;101592.53;;;16.48;55.53
40998;BME280;26740;45.944;12.480;2023-11-19T10:02:33;101585.72;;;17.90;54.28
40998;BME280;26740;45.944;12.480;2023-11-19T10:05:00;101590.28;;;18.51;51.26
40998;BME280;26740;45.944;12.480;2023-11-19T10:07:29;101595.44;;;19.67;44.99
40998;BME280;26740;45.944;12.480;2023-11-19T10:09:54;101590.56;;;19.78;42.27
40998;BME280;26740;45.944;12.480;2023-11-19T10:12:20;101590.19;;;18.76;48.12
40998;BME280;26740;45.944;12.480;2023-11-19T10:14:46;101578.78;;;19.02;47.25
40998;BME280;26740;45.944;12.480;2023-11-19T10:17:13;101556.97;;;18.79;44.34
40998;BME280;26740;45.944;12.480;2023-11-19T10:19:40;101539.00;;;19.14;43.83
40998;BME280;26740;45.944;12.480;2023-11-19T10:22:07;101533.91;;;19.50;41.77
40998;BME280;26740;45.944;12.480;2023-11-19T10:24:33;101550.50;;;20.11;40.52
40998;BME280;26740;45.944;12.480;2023-11-19T10:27:02;101563.91;;;19.65;40.54
40998;BME280;26740;45.944;12.480;2023-11-19T10:29:29;101553.31;;;20.35;39.46
40998;BME280;26740;45.944;12.480;2023-11-19T10:31:58;101539.97;;;20.40;39.02
40998;BME280;26740;45.944;12.480;2023-11-19T10:34:25;101540.16;;;19.77;40.55
40998;BME280;26740;45.944;12.480;2023-11-19T10:36:51;101537.97;;;20.65;42.09
40998;BME280;26740;45.944;12.480;2023-11-19T10:39:17;101540.47;;;20.86;36.49
40998;BME280;26740;45.944;12.480;2023-11-19T10:41:43;101542.63;;;20.94;36.71
40998;BME280;26740;45.944;12.480;2023-11-19T10:44:09;101542.31;;;20.76;35.76
40998;BME280;26740;45.944;12.480;2023-11-19T10:49:00;101536.22;;;20.69;36.58
40998;BME280;26740;45.944;12.480;2023-11-19T10:51:26;101516.09;;;20.33;35.99
40998;BME280;26740;45.944;12.480;2023-11-19T10:53:54;101505.34;;;18.54;41.27
40998;BME280;26740;45.944;12.480;2023-11-19T10:56:25;101512.91;;;18.64;40.24
40998;BME280;26740;45.944;12.480;2023-11-19T10:58:52;101508.13;;;19.62;37.81
40998;BME280;26740;45.944;12.480;2023-11-19T11:01:20;101504.00;;;21.08;34.78
40998;BME280;26740;45.944;12.480;2023-11-19T11:03:51;101511.00;;;20.35;35.22
40998;BME280;26740;45.944;12.480;2023-11-19T11:06:19;101506.25;;;20.30;35.29
40998;BME280;26740;45.944;12.480;2023-11-19T11:08:46;101500.34;;;21.08;33.90
40998;BME280;26740;45.944;12.480;2023-11-19T11:11:15;101500.53;;;21.77;31.91
40998;BME280;26740;45.944;12.480;2023-11-19T11:13:44;101503.81;;;20.67;31.41
40998;BME280;26740;45.944;12.480;2023-11-19T11:16:12;101508.56;;;20.04;36.43
40998;BME280;26740;45.944;12.480;2023-11-19T11:18:37;101507.31;;;21.29;34.06
40998;BME280;26740;45.944;12.480;2023-11-19T11:21:12;101508.19;;;22.04;33.63
40998;BME280;26740;45.944;12.480;2023-11-19T11:31:48;101508.00;;;19.78;32.96
40998;BME280;26740;45.944;12.480;2023-11-19T11:39:33;101501.13;;;19.01;33.08
40998;BME280;26740;45.944;12.480;2023-11-19T11:45:09;101492.75;;;18.91;32.32
40998;BME280;26740;45.944;12.480;2023-11-19T11:50:15;101487.69;;;17.88;35.30
40998;BME280;26740;45.944;12.480;2023-11-19T11:55:25;101474.81;;;17.56;36.63
40998;BME280;26740;45.944;12.480;2023-11-19T11:57:51;101476.22;;;17.43;37.10
40998;BME280;26740;45.944;12.480;2023-11-19T12:02:55;101470.94;;;18.17;36.87
40998;BME280;26740;45.944;12.480;2023-11-19T12:05:21;101460.13;;;17.85;35.51
40998;BME280;26740;45.944;12.480;2023-11-19T12:08:00;101462.13;;;17.69;36.00
40998;BME280;26740;45.944;12.480;2023-11-19T12:10:29;101465.25;;;17.52;37.41
40998;BME280;26740;45.944;12.480;2023-11-19T12:13:04;101474.44;;;17.84;37.36
40998;BME280;26740;45.944;12.480;2023-11-19T12:15:31;101487.00;;;18.12;38.67
40998;BME280;26740;45.944;12.480;2023-11-19T12:17:56;101479.53;;;17.87;37.01
40998;BME280;26740;45.944;12.480;2023-11-19T12:20:25;101465.84;;;17.59;37.42
40998;BME280;26740;45.944;12.480;2023-11-19T12:22:52;101459.88;;;17.66;35.94
40998;BME280;26740;45.944;12.480;2023-11-19T12:25:19;101459.88;;;17.71;36.52
40998;BME280;26740;45.944;12.480;2023-11-19T12:27:52;101454.78;;;17.78;36.74
40998;BME280;26740;45.944;12.480;2023-11-19T12:30:25;101461.38;;;17.28;37.46
40998;BME280;26740;45.944;12.480;2023-11-19T12:32:52;101458.00;;;17.31;39.65
40998;BME280;26740;45.944;12.480;2023-11-19T12:35:21;101461.97;;;17.09;39.02
40998;BME280;26740;45.944;12.480;2023-11-19T12:37:48;101459.16;;;16.99;37.11
40998;BME280;26740;45.944;12.480;2023-11-19T12:40:16;101462.81;;;17.15;37.80
40998;BME280;26740;45.944;12.480;2023-11-19T12:42:45;101462.25;;;17.13;37.94
40998;BME280;26740;45.944;12.480;2023-11-19T12:45:11;101457.72;;;17.32;37.29
40998;BME280;26740;45.944;12.480;2023-11-19T12:47:38;101452.38;;;16.43;38.76
40998;BME280;26740;45.944;12.480;2023-11-19T12:50:05;101447.28;;;16.30;39.21
40998;BME280;26740;45.944;12.480;2023-11-19T12:52:30;101439.22;;;16.80;40.57
40998;BME280;26740;45.944;12.480;2023-11-19T12:54:56;101445.69;;;16.96;38.96
40998;BME280;26740;45.944;12.480;2023-11-19T12:57:42;101450.75;;;16.89;39.28
40998;BME280;26740;45.944;12.480;2023-11-19T13:00:18;101424.06;;;16.50;39.09
40998;BME280;26740;45.944;12.480;2023-11-19T13:05:22;101415.94;;;16.48;38.43
40998;BME280;26740;45.944;12.480;2023-11-19T13:07:48;101417.63;;;16.80;42.20
40998;BME280;26740;45.944;12.480;2023-11-19T13:10:14;101415.94;;;16.79;39.56